Time;durP1;ratioP1;P1;durP2;ratioP2;P2;SDS_P1;SDS_P2;PMS_P1;PMS_P2;Temp;Humidity;BMP_temperature;BMP_pressure;BME280_temperature;BME280_humidity;BME280_pressure;Samples;Min_cycle;Max_cycle;Signal;HPM_P1;HPM_P2
2023/06/07 00:00:12;;;;;;;18.80;6.78;;;10.60;99.90;;;;;;4978049;28;209247;-72
2023/06/07 00:02:38;;;;;;;18.83;7.00;;;10.50;99.90;;;;;;5041883;28;20053;-70
2023/06/07 00:05:05;;;;;;;22.00;6.97;;;10.50;99.90;;;;;;4954603;28;208744;-72
2023/06/07 00:07:32;;;;;;;17.17;6.95;;;10.40;99.90;;;;;;5005918;28;20065;-71
2023/06/07 00:09:58;;;;;;;22.95;7.78;;;10.40;99.90;;;;;;4976436;28;209046;-71
2023/06/07 00:12:25;;;;;;;19.83;7.72;;;10.40;99.90;;;;;;5006605;28;20045;-72
2023/06/07 00:14:51;;;;;;;17.75;7.32;;;10.30;99.90;;;;;;4966459;28;213474;-71
2023/06/07 00:17:17;;;;;;;21.08;7.22;;;10.20;99.90;;;;;;4991298;28;20898;-71
2023/06/07 00:19:43;;;;;;;20.33;6.97;;;10.20;99.90;;;;;;4957107;28;219049;-70
2023/06/07 00:22:12;;;;;;;17.50;7.35;;;10.10;99.90;;;;;;4986818;28;20054;-70
2023/06/07 00:24:39;;;;;;;19.15;7.50;;;10.10;99.90;;;;;;4961911;28;211527;-70
2023/06/07 00:27:05;;;;;;;23.42;7.50;;;10.10;99.90;;;;;;4992855;28;20077;-71
2023/06/07 00:29:31;;;;;;;20.25;7.03;;;10.10;99.90;;;;;;4952722;28;206885;-71
2023/06/07 00:31:58;;;;;;;18.55;7.05;;;10.00;99.90;;;;;;5004366;28;20053;-71
2023/06/07 00:34:24;;;;;;;23.10;8.05;;;10.00;99.90;;;;;;4951970;28;208898;-71
2023/06/07 00:36:50;;;;;;;20.75;8.05;;;10.00;99.90;;;;;;5005770;28;20061;-70
2023/06/07 00:39:17;;;;;;;14.38;6.95;;;9.90;99.90;;;;;;4961071;28;208830;-71
2023/06/07 00:41:43;;;;;;;25.23;7.35;;;9.90;99.90;;;;;;5005786;28;20096;-71
2023/06/07 00:44:12;;;;;;;21.20;6.38;;;9.90;99.90;;;;;;4955706;28;215284;-70
2023/06/07 00:46:38;;;;;;;22.65;8.00;;;9.90;99.90;;;;;;4990756;28;20550;-70
2023/06/07 00:49:04;;;;;;;18.52;7.00;;;10.00;99.90;;;;;;4943974;28;208550;-70
2023/06/07 00:51:31;;;;;;;19.30;7.93;;;10.00;99.90;;;;;;4981887;28;20639;-72
2023/06/07 00:54:02;;;;;;;25.45;7.88;;;10.00;99.90;;;;;;4942909;28;208531;-70
2023/06/07 00:56:29;;;;;;;25.60;7.82;;;9.90;99.90;;;;;;4993674;28;20053;-70
2023/06/07 00:58:56;;;;;;;19.52;7.78;;;9.90;99.90;;;;;;4946300;28;211632;-71
2023/06/07 01:01:22;;;;;;;20.73;8.18;;;9.90;99.90;;;;;;5008893;28;20134;-70
2023/06/07 01:03:48;;;;;;;22.23;7.97;;;9.80;99.90;;;;;;4937244;28;208752;-71
2023/06/07 01:06:14;;;;;;;15.80;6.80;;;9.80;99.90;;;;;;4993268;28;20455;-71
2023/06/07 01:08:41;;;;;;;21.00;7.30;;;9.80;99.90;;;;;;4941420;28;206189;-72
2023/06/07 01:11:10;;;;;;;28.15;7.72;;;9.70;99.90;;;;;;5014074;28;20034;-71
2023/06/07 01:13:38;;;;;;;19.23;6.53;;;9.70;99.90;;;;;;4954991;28;208939;-71
2023/06/07 01:16:06;;;;;;;19.25;7.60;;;9.70;99.90;;;;;;5013413;28;20160;-70
2023/06/07 01:18:32;;;;;;;22.40;7.53;;;9.80;99.90;;;;;;4934446;28;205949;-71
2023/06/07 01:21:00;;;;;;;28.77;8.25;;;9.70;99.90;;;;;;4987587;28;20053;-70
2023/06/07 01:23:31;;;;;;;18.95;8.23;;;9.70;99.90;;;;;;4935059;28;210395;-70
2023/06/07 01:25:58;;;;;;;;;;;9.70;99.90;;;;;;5006744;28;20130;-70
2023/06/07 01:28:30;;;;;;;26.10;8.23;;;9.70;99.90;;;;;;4956847;28;215009;-69
2023/06/07 01:30:57;;;;;;;17.15;7.05;;;9.60;99.90;;;;;;5020548;28;20054;-71
2023/06/07 01:33:24;;;;;;;19.73;8.20;;;9.60;99.90;;;;;;4940511;28;208260;-70
2023/06/07 01:35:52;;;;;;;17.80;6.65;;;9.60;99.90;;;;;;5000229;28;20058;-69
2023/06/07 01:38:20;;;;;;;19.90;7.20;;;9.70;99.90;;;;;;4937765;28;209082;-71
2023/06/07 01:40:47;;;;;;;19.73;7.68;;;9.60;99.90;;;;;;5002939;28;20045;-71
2023/06/07 01:43:14;;;;;;;19.48;7.80;;;9.60;99.90;;;;;;4948262;28;208133;-71
2023/06/07 01:45:43;;;;;;;22.50;7.18;;;9.60;99.90;;;;;;5002639;28;20046;-70
2023/06/07 01:48:10;;;;;;;22.42;7.07;;;9.60;99.90;;;;;;4976082;28;212001;-70
2023/06/07 01:50:37;;;;;;;17.88;6.63;;;9.60;99.90;;;;;;4974568;28;20504;-72
2023/06/07 01:53:03;;;;;;;22.35;7.78;;;9.60;99.90;;;;;;4983145;28;20046;-70
2023/06/07 01:55:29;;;;;;;22.52;7.80;;;9.60;99.90;;;;;;4945084;28;209089;-71
2023/06/07 01:58:29;;;;;;;25.35;7.32;;;9.60;99.90;;;;;;4989057;28;20049;-72
2023/06/07 02:01:14;;;;;;;20.95;8.02;;;9.60;99.90;;;;;;4945428;28;124767;-71
2023/06/07 02:03:48;;;;;;;18.13;6.97;;;9.60;99.90;;;;;;4976015;28;207611;-70
2023/06/07 02:06:27;;;;;;;18.55;7.15;;;9.60;99.90;;;;;;5001200;28;20049;-71
2023/06/07 02:08:56;;;;;;;20.00;7.05;;;9.60;99.90;;;;;;4986074;28;206979;-70
2023/06/07 02:11:24;;;;;;;17.13;7.03;;;9.60;99.90;;;;;;5033245;28;20049;-71
2023/06/07 02:13:50;;;;;;;23.98;7.35;;;9.60;99.90;;;;;;4948624;28;207286;-71
2023/06/07 02:16:17;;;;;;;20.40;7.35;;;9.60;99.90;;;;;;4987784;28;20061;-69
2023/06/07 02:18:44;;;;;;;18.17;6.15;;;9.60;99.90;;;;;;4943941;28;211440;-71
2023/06/07 02:21:10;;;;;;;25.27;6.47;;;9.60;99.90;;;;;;4991691;28;20055;-71
2023/06/07 02:23:37;;;;;;;15.43;6.07;;;9.60;99.90;;;;;;4941864;28;208544;-72
2023/06/07 02:26:04;;;;;;;23.60;7.78;;;9.60;99.90;;;;;;4999323;28;20073;-70
2023/06/07 02:28:30;;;;;;;19.35;7.55;;;9.50;99.90;;;;;;4956823;28;207082;-70
2023/06/07 02:30:57;;;;;;;21.60;7.35;;;9.50;99.90;;;;;;5013602;28;20043;-71
2023/06/07 02:33:26;;;;;;;18.52;7.13;;;9.50;99.90;;;;;;4936377;28;212205;-71
2023/06/07 02:35:52;;;;;;;19.00;7.38;;;9.50;99.90;;;;;;5025375;28;20046;-70
2023/06/07 02:38:18;;;;;;;19.77;7.90;;;9.40;99.90;;;;;;4937165;28;211636;-70
2023/06/07 02:40:45;;;;;;;25.60;8.38;;;9.50;99.90;;;;;;5032599;28;20062;-71
2023/06/07 02:43:11;;;;;;;20.02;7.43;;;9.40;99.90;;;;;;4965210;28;218667;-70
2023/06/07 02:45:37;;;;;;;19.23;6.90;;;9.40;99.90;;;;;;4999132;28;20408;-70
2023/06/07 02:48:03;;;;;;;19.85;7.05;;;9.40;99.90;;;;;;5018186;28;20602;-74
2023/06/07 02:50:29;;;;;;;18.50;7.35;;;9.40;99.90;;;;;;4976800;28;206201;-73
2023/06/07 02:52:55;;;;;;;21.35;7.88;;;9.40;99.90;;;;;;5009243;28;20049;-73
2023/06/07 02:55:22;;;;;;;25.98;7.70;;;9.40;99.90;;;;;;4968040;28;207656;-74
2023/06/07 02:57:48;;;;;;;20.55;7.45;;;9.50;99.90;;;;;;5020289;28;20064;-75
2023/06/07 03:00:14;;;;;;;19.98;7.80;;;9.50;99.90;;;;;;4974606;28;212380;-74
2023/06/07 03:02:41;;;;;;;23.65;7.47;;;9.60;99.90;;;;;;4991096;28;21194;-73
2023/06/07 03:05:07;;;;;;;22.50;7.07;;;9.70;99.90;;;;;;4969190;28;209308;-72
2023/06/07 03:07:35;;;;;;;16.23;6.32;;;9.70;99.90;;;;;;5025888;28;20049;-74
2023/06/07 03:10:02;;;;;;;20.80;7.20;;;9.70;99.90;;;;;;4991552;28;209465;-74
2023/06/07 03:12:28;;;;;;;21.00;7.63;;;9.70;99.90;;;;;;5044571;28;20053;-75
2023/06/07 03:14:55;;;;;;;22.30;7.90;;;9.80;99.90;;;;;;4959965;28;214369;-73
2023/06/07 03:17:21;;;;;;;23.77;7.45;;;9.90;99.90;;;;;;4990990;28;20052;-73
2023/06/07 03:19:48;;;;;;;21.73;7.30;;;10.00;99.90;;;;;;4957627;28;228018;-73
2023/06/07 03:22:14;;;;;;;16.50;6.57;;;9.90;99.90;;;;;;4972774;28;20060;-73
2023/06/07 03:24:40;;;;;;;17.90;6.32;;;9.90;99.90;;;;;;4952132;28;250043;-73
2023/06/07 03:27:08;;;;;;;24.48;6.95;;;9.90;99.90;;;;;;5005269;28;20054;-71
2023/06/07 03:29:34;;;;;;;24.27;7.90;;;10.00;99.90;;;;;;4961887;28;217545;-72
2023/06/07 03:32:00;;;;;;;24.38;6.90;;;10.10;99.90;;;;;;4995420;28;20058;-73
2023/06/07 03:34:29;;;;;;;26.13;7.40;;;10.10;99.90;;;;;;4968636;28;205420;-76
2023/06/07 03:36:56;;;;;;;21.95;7.07;;;10.20;99.90;;;;;;5013842;28;20058;-75
2023/06/07 03:39:22;;;;;;;26.30;6.63;;;10.30;99.90;;;;;;4979943;28;207388;-73
2023/06/07 03:41:48;;;;;;;19.80;6.25;;;10.30;99.90;;;;;;5007619;28;20057;-73
2023/06/07 03:44:14;;;;;;;17.73;5.57;;;10.40;99.90;;;;;;4987775;28;207583;-73
2023/06/07 03:46:41;;;;;;;21.75;6.22;;;10.50;99.90;;;;;;4992633;28;20066;-73
2023/06/07 03:49:08;;;;;;;19.73;6.60;;;10.50;99.90;;;;;;4956093;28;210060;-73
2023/06/07 03:51:38;;;;;;;25.45;5.45;;;10.60;99.90;;;;;;5020649;28;20054;-73
2023/06/07 03:54:04;;;;;;;22.77;6.47;;;10.70;99.90;;;;;;4945965;28;211455;-73
2023/06/07 03:56:30;;;;;;;22.52;5.55;;;10.70;99.90;;;;;;4994296;28;20061;-73
2023/06/07 03:58:57;;;;;;;24.67;5.90;;;10.70;99.90;;;;;;4949522;28;209749;-73
2023/06/07 04:01:25;;;;;;;24.35;5.57;;;10.80;99.90;;;;;;5004998;28;20069;-73
2023/06/07 04:03:52;;;;;;;28.13;6.00;;;10.80;99.90;;;;;;4946460;28;208113;-74
2023/06/07 04:06:20;;;;;;;20.63;5.55;;;10.90;99.90;;;;;;5000982;28;20464;-72
2023/06/07 04:08:47;;;;;;;22.55;5.88;;;11.00;99.90;;;;;;4946769;28;209998;-72
2023/06/07 04:11:13;;;;;;;23.35;6.40;;;11.00;99.90;;;;;;5021048;28;20046;-72
2023/06/07 04:13:42;;;;;;;22.15;5.88;;;11.10;99.90;;;;;;4954251;28;239857;-73
2023/06/07 04:16:08;;;;;;;23.48;6.45;;;11.20;99.90;;;;;;5007672;28;20050;-76
2023/06/07 04:18:34;;;;;;;25.52;6.40;;;11.10;99.90;;;;;;4936218;28;228770;-73
2023/06/07 04:21:00;;;;;;;18.40;6.13;;;11.20;99.90;;;;;;5010323;28;20050;-73
2023/06/07 04:23:26;;;;;;;21.52;6.50;;;11.20;99.90;;;;;;4936405;28;214575;-73
2023/06/07 04:25:55;;;;;;;25.80;7.25;;;11.30;99.90;;;;;;5017531;28;20034;-72
2023/06/07 04:28:23;;;;;;;18.65;6.78;;;11.40;99.90;;;;;;4942414;28;209514;-71
2023/06/07 04:30:53;;;;;;;31.38;6.88;;;11.40;99.90;;;;;;4997771;28;20062;-72
2023/06/07 04:33:21;;;;;;;23.07;6.70;;;11.40;99.90;;;;;;4934512;28;228698;-73
2023/06/07 04:35:47;;;;;;;28.42;7.40;;;11.50;99.90;;;;;;5004536;28;20053;-72
2023/06/07 04:38:20;;;;;;;24.13;6.15;;;11.50;99.90;;;;;;4981599;28;209600;-74
2023/06/07 04:40:50;;;;;;;26.45;6.60;;;11.60;99.90;;;;;;5015108;28;20056;-74
2023/06/07 04:43:18;;;;;;;28.30;6.60;;;11.70;99.90;;;;;;4947945;28;228501;-74
2023/06/07 04:45:54;;;;;;;27.48;5.50;;;11.70;99.90;;;;;;5012060;28;20511;-74
2023/06/07 04:48:26;;;;;;;22.98;5.40;;;11.80;99.90;;;;;;4965557;28;205154;-74
2023/06/07 04:50:54;;;;;;;18.77;4.85;;;11.80;99.90;;;;;;4992295;28;20058;-73
2023/06/07 04:53:20;;;;;;;22.05;5.55;;;11.90;99.90;;;;;;4910547;28;233067;-73
2023/06/07 04:55:50;;;;;;;23.52;5.30;;;12.00;99.90;;;;;;4999621;28;20054;-72
2023/06/07 04:58:17;;;;;;;17.90;4.20;;;12.00;99.90;;;;;;4938164;28;209924;-73
2023/06/07 05:00:43;;;;;;;25.77;5.00;;;12.00;99.90;;;;;;5008116;28;20041;-74
2023/06/07 05:03:21;;;;;;;19.53;4.30;;;12.00;99.90;;;;;;5003090;28;250974;-72
2023/06/07 05:05:48;;;;;;;20.15;4.50;;;12.10;99.90;;;;;;4965441;28;20050;-72
2023/06/07 05:08:15;;;;;;;21.30;4.65;;;12.20;99.90;;;;;;4927873;28;212943;-72
2023/06/07 05:10:41;;;;;;;19.65;4.32;;;12.30;99.90;;;;;;5035652;28;20068;-74
2023/06/07 05:13:07;;;;;;;16.67;3.80;;;12.30;99.90;;;;;;4997410;28;222185;-76
2023/06/07 05:15:34;;;;;;;20.52;4.10;;;12.30;99.90;;;;;;4930045;28;1483819;-74
2023/06/07 05:18:01;;;;;;;18.65;4.05;;;12.30;99.90;;;;;;4989799;28;20072;-74
2023/06/07 05:20:29;;;;;;;18.33;4.10;;;12.40;99.90;;;;;;4982597;28;206352;-75
2023/06/07 05:22:56;;;;;;;20.80;4.20;;;12.40;99.90;;;;;;5001583;28;20029;-78
2023/06/07 05:25:22;;;;;;;19.63;4.18;;;12.40;99.90;;;;;;4944243;28;214200;-72
2023/06/07 05:27:49;;;;;;;17.70;3.83;;;12.50;99.90;;;;;;4998099;28;20049;-73
2023/06/07 05:30:16;;;;;;;22.67;4.07;;;12.50;99.90;;;;;;4970538;28;215487;-73
2023/06/07 05:32:42;;;;;;;12.90;4.07;;;12.60;99.90;;;;;;4991043;28;20065;-70
2023/06/07 05:35:09;;;;;;;19.10;4.25;;;12.60;99.90;;;;;;4974795;28;240332;-70
2023/06/07 05:37:35;;;;;;;20.08;3.80;;;12.70;99.90;;;;;;5011723;28;20423;-69
2023/06/07 05:40:01;;;;;;;23.10;4.20;;;12.80;99.90;;;;;;4969892;28;210092;-69
2023/06/07 05:42:27;;;;;;;18.40;3.70;;;12.90;99.90;;;;;;4994576;28;20069;-70
2023/06/07 05:44:54;;;;;;;17.60;3.65;;;13.10;99.90;;;;;;4955993;28;212041;-70
2023/06/07 05:47:20;;;;;;;13.98;3.67;;;13.30;99.90;;;;;;4986153;28;20054;-68
2023/06/07 05:49:47;;;;;;;16.40;4.25;;;13.60;99.90;;;;;;4955439;28;207168;-69
2023/06/07 05:52:13;;;;;;;16.45;3.47;;;13.60;99.90;;;;;;4981742;28;20054;-70
2023/06/07 05:54:47;;;;;;;17.83;3.92;;;13.70;99.90;;;;;;4932608;28;219283;-70
2023/06/07 05:57:13;;;;;;;21.08;3.90;;;13.90;99.90;;;;;;4970344;28;20054;-69
2023/06/07 05:59:39;;;;;;;15.57;4.20;;;14.00;99.90;;;;;;4973786;28;207908;-69
2023/06/07 06:02:07;;;;;;;15.18;3.55;;;14.00;99.90;;;;;;5022773;28;20069;-69
2023/06/07 06:04:33;;;;;;;19.02;4.05;;;13.90;99.90;;;;;;4974300;28;209155;-69
2023/06/07 06:07:02;;;;;;;17.95;3.70;;;13.80;99.90;;;;;;5018790;28;20072;-70
2023/06/07 06:09:29;;;;;;;14.85;3.35;;;13.70;99.90;;;;;;4976797;28;208801;-71
2023/06/07 06:11:55;;;;;;;16.50;3.80;;;13.60;99.90;;;;;;5016459;28;20050;-71
2023/06/07 06:14:24;;;;;;;20.90;3.85;;;13.60;99.90;;;;;;4969284;28;209298;-71
2023/06/07 06:16:51;;;;;;;15.23;3.70;;;13.70;99.90;;;;;;5022840;28;20060;-71
2023/06/07 06:19:17;;;;;;;14.68;3.47;;;13.60;99.90;;;;;;4968388;28;209133;-70
2023/06/07 06:21:43;;;;;;;18.77;4.28;;;13.50;99.90;;;;;;5016039;28;20050;-70
2023/06/07 06:24:09;;;;;;;15.73;3.78;;;13.50;99.90;;;;;;4967401;28;220645;-70
2023/06/07 06:26:36;;;;;;;18.73;3.70;;;13.50;99.90;;;;;;4987300;28;20046;-70
2023/06/07 06:29:02;;;;;;;19.33;3.78;;;13.50;99.90;;;;;;4958973;28;207038;-71
2023/06/07 06:31:28;;;;;;;18.27;3.95;;;13.50;99.90;;;;;;5017086;28;20049;-71
2023/06/07 06:33:54;;;;;;;16.38;3.92;;;13.40;99.90;;;;;;4962634;28;209591;-73
2023/06/07 06:36:21;;;;;;;17.65;4.20;;;13.50;99.90;;;;;;5003369;28;20058;-73
2023/06/07 06:38:47;;;;;;;17.80;4.07;;;13.40;99.90;;;;;;4944708;28;216573;-70
2023/06/07 06:41:13;;;;;;;16.13;3.50;;;13.50;99.90;;;;;;5008288;28;20049;-73
2023/06/07 06:43:39;;;;;;;18.23;3.78;;;13.50;99.90;;;;;;4985530;28;206158;-72
2023/06/07 06:46:05;;;;;;;17.20;3.88;;;13.60;99.90;;;;;;5011764;28;20053;-72
2023/06/07 06:48:31;;;;;;;17.48;4.07;;;13.90;99.90;;;;;;4951879;28;213224;-71
2023/06/07 06:50:58;;;;;;;18.05;3.47;;;14.30;99.90;;;;;;5000187;28;20415;-72
2023/06/07 06:53:24;;;;;;;14.52;3.72;;;14.60;99.90;;;;;;4951410;28;210489;-72
2023/06/07 06:55:50;;;;;;;18.48;3.97;;;14.80;99.90;;;;;;4980235;28;20045;-73
2023/06/07 06:58:16;;;;;;;15.73;3.28;;;15.10;99.90;;;;;;4952749;28;209683;-72
2023/06/07 07:00:42;;;;;;;16.73;3.92;;;15.50;99.90;;;;;;5019488;28;20046;-72
2023/06/07 07:03:08;;;;;;;16.10;4.10;;;15.80;99.90;;;;;;5017381;28;209920;-72
2023/06/07 07:05:34;;;;;;;15.18;3.60;;;16.20;99.90;;;;;;4999510;28;208304;-73
2023/06/07 07:08:03;;;;;;;14.25;3.53;;;16.60;99.90;;;;;;5012135;28;20064;-72
2023/06/07 07:10:29;;;;;;;17.10;3.40;;;17.00;99.90;;;;;;4959152;28;259280;-72
2023/06/07 07:12:55;;;;;;;14.02;3.20;;;17.40;99.90;;;;;;4989183;28;20061;-70
2023/06/07 07:15:21;;;;;;;14.95;3.40;;;17.60;99.90;;;;;;4962231;28;207117;-72
2023/06/07 07:17:48;;;;;;;14.45;3.20;;;17.90;99.90;;;;;;5020506;28;20057;-72
2023/06/07 07:20:17;;;;;;;14.55;3.10;;;18.10;99.90;;;;;;4987612;28;210496;-72
2023/06/07 07:22:45;;;;;;;17.27;3.60;;;18.30;99.90;;;;;;5037024;28;20568;-73
2023/06/07 07:25:12;;;;;;;16.60;3.58;;;18.30;99.90;;;;;;4962031;28;223833;-72
2023/06/07 07:27:38;;;;;;;16.80;3.65;;;18.10;99.90;;;;;;5003688;28;20061;-72
2023/06/07 07:30:05;;;;;;;17.90;3.53;;;18.30;99.90;;;;;;4963293;28;206573;-71
2023/06/07 07:32:35;;;;;;;13.88;3.28;;;18.40;99.90;;;;;;5012746;28;20053;-72
2023/06/07 07:35:01;;;;;;;15.68;3.25;;;18.50;99.90;;;;;;4963400;28;208957;-72
2023/06/07 07:37:28;;;;;;;16.67;3.97;;;18.60;99.90;;;;;;4988597;28;20539;-71
2023/06/07 07:39:54;;;;;;;12.20;3.10;;;18.60;99.90;;;;;;4967556;28;208726;-72
2023/06/07 07:42:21;;;;;;;14.30;3.53;;;18.90;99.90;;;;;;4998660;28;20443;-71
2023/06/07 07:44:47;;;;;;;14.15;3.20;;;18.90;99.60;;;;;;4943999;28;250136;-71
2023/06/07 07:47:16;;;;;;;12.35;3.22;;;19.10;99.50;;;;;;4984382;28;20099;-71
2023/06/07 07:49:42;;;;;;;20.08;3.85;;;19.30;98.90;;;;;;4959155;28;211181;-71
2023/06/07 07:52:08;;;;;;;12.63;3.10;;;19.50;98.80;;;;;;4990774;28;20104;-71
2023/06/07 07:54:35;;;;;;;16.13;3.33;;;19.70;98.90;;;;;;4971056;28;205138;-71
2023/06/07 07:57:01;;;;;;;12.95;2.80;;;19.70;98.50;;;;;;5006264;28;20245;-71
2023/06/07 07:59:27;;;;;;;16.63;3.08;;;19.80;98.80;;;;;;4961879;28;209416;-72
2023/06/07 08:01:53;;;;;;;14.55;3.17;;;20.20;98.70;;;;;;5006429;28;20415;-71
2023/06/07 08:04:19;;;;;;;17.95;3.35;;;20.50;98.20;;;;;;4951781;28;207574;-73
2023/06/07 08:06:45;;;;;;;15.02;3.72;;;20.80;98.10;;;;;;4987431;28;20061;-72
2023/06/07 08:09:12;;;;;;;13.23;3.33;;;21.10;97.60;;;;;;4971818;28;210939;-73
2023/06/07 08:11:38;;;;;;;17.05;3.83;;;21.50;97.60;;;;;;5020479;28;20045;-71
2023/06/07 08:14:04;;;;;;;12.38;3.20;;;21.50;96.40;;;;;;4951853;28;256031;-71
2023/06/07 08:16:30;;;;;;;14.23;3.85;;;21.30;96.50;;;;;;4992264;28;20843;-72
2023/06/07 08:18:58;;;;;;;13.45;3.60;;;21.30;96.30;;;;;;4972906;28;232132;-72
2023/06/07 08:21:25;;;;;;;13.77;2.88;;;21.30;96.30;;;;;;4984299;28;20061;-73
2023/06/07 08:23:55;;;;;;;12.07;3.08;;;21.40;96.50;;;;;;4969078;28;210332;-72
2023/06/07 08:26:22;;;;;;;12.13;3.33;;;21.50;95.90;;;;;;5003238;28;20432;-72
2023/06/07 08:28:48;;;;;;;16.42;3.70;;;21.60;96.20;;;;;;4960271;28;209657;-73
2023/06/07 08:31:14;;;;;;;13.43;3.25;;;22.00;95.60;;;;;;5007763;28;20046;-72
2023/06/07 08:33:40;;;;;;;15.23;3.17;;;22.20;95.20;;;;;;4973964;28;211672;-72
2023/06/07 08:36:06;;;;;;;13.52;3.45;;;22.20;95.00;;;;;;5030380;28;20050;-73
2023/06/07 08:38:32;;;;;;;14.30;3.72;;;22.30;94.90;;;;;;4947737;28;208687;-73
2023/06/07 08:41:01;;;;;;;12.93;3.53;;;22.20;94.80;;;;;;5002451;28;20058;-71
2023/06/07 08:43:27;;;;;;;13.57;3.60;;;22.70;95.10;;;;;;4968225;28;211334;-73
2023/06/07 08:45:55;;;;;;;14.35;3.03;;;23.00;94.90;;;;;;5014935;28;20046;-72
2023/06/07 08:48:24;;;;;;;16.80;3.58;;;23.10;94.40;;;;;;4982898;28;206903;-73
2023/06/07 08:50:54;;;;;;;13.65;2.97;;;23.50;94.50;;;;;;5013879;28;20069;-73
2023/06/07 08:53:26;;;;;;;12.68;3.05;;;23.30;93.90;;;;;;4915989;28;211508;-74
2023/06/07 08:55:54;;;;;;;15.48;3.67;;;23.70;93.40;;;;;;5011001;28;20050;-73
2023/06/07 08:58:24;;;;;;;11.38;3.00;;;23.70;92.80;;;;;;4992245;28;208956;-72
2023/06/07 09:00:51;;;;;;;15.80;3.35;;;24.00;93.50;;;;;;5017502;28;20050;-72
2023/06/07 09:03:17;;;;;;;12.25;3.40;;;24.20;93.30;;;;;;4948688;28;213686;-72
2023/06/07 09:05:43;;;;;;;14.77;3.47;;;24.20;92.50;;;;;;5000660;28;20054;-72
2023/06/07 09:08:09;;;;;;;12.88;3.30;;;24.00;92.30;;;;;;4945707;28;229352;-72
2023/06/07 09:10:35;;;;;;;14.52;4.00;;;24.10;92.40;;;;;;4991716;28;20535;-72
2023/06/07 09:13:02;;;;;;;14.30;3.28;;;24.50;92.10;;;;;;4971189;28;20066;-72
2023/06/07 09:15:29;;;;;;;12.98;3.28;;;24.30;91.80;;;;;;4965712;28;207880;-73
2023/06/07 09:18:02;;;;;;;11.68;3.45;;;24.30;92.00;;;;;;5024622;28;20057;-73
2023/06/07 09:20:31;;;;;;;14.30;3.25;;;24.30;91.70;;;;;;4947591;28;206566;-72
2023/06/07 09:22:59;;;;;;;11.85;3.35;;;24.60;91.20;;;;;;4986893;28;20467;-73
2023/06/07 09:25:27;;;;;;;11.75;3.47;;;24.90;91.00;;;;;;4946804;28;199951;-73
2023/06/07 09:27:54;;;;;;;12.68;3.30;;;25.30;91.20;;;;;;5005907;28;20499;-73
2023/06/07 09:30:21;;;;;;;11.57;3.33;;;25.50;90.80;;;;;;4948336;28;211382;-73
2023/06/07 09:32:48;;;;;;;12.68;3.13;;;25.50;90.70;;;;;;5004192;28;20065;-73
2023/06/07 09:35:16;;;;;;;12.80;3.15;;;25.90;90.30;;;;;;4964121;28;211131;-72
2023/06/07 09:37:54;;;;;;;12.32;3.30;;;26.30;89.30;;;;;;4986711;28;20046;-73
2023/06/07 09:40:22;;;;;;;11.18;3.30;;;26.20;89.50;;;;;;4949233;28;208256;-73
2023/06/07 09:42:59;;;;;;;13.68;3.83;;;26.70;89.10;;;;;;5022645;28;20053;-72
2023/06/07 09:45:27;;;;;;;12.13;3.55;;;27.20;87.50;;;;;;4963491;28;206966;-72
2023/06/07 09:48:04;;;;;;;13.43;3.30;;;26.80;87.70;;;;;;5007557;28;20049;-71
2023/06/07 09:50:30;;;;;;;12.57;3.40;;;26.40;86.60;;;;;;4964489;28;20053;-72
2023/06/07 09:52:58;;;;;;;12.43;3.60;;;26.20;88.90;;;;;;5008304;28;20415;-73
2023/06/07 09:55:27;;;;;;;13.70;3.72;;;25.90;87.00;;;;;;4946476;28;211547;-71
2023/06/07 09:57:53;;;;;;;12.82;3.65;;;25.80;87.60;;;;;;5009321;28;20054;-73
2023/06/07 10:00:20;;;;;;;15.77;4.00;;;25.70;88.60;;;;;;4949513;28;206981;-72
2023/06/07 10:02:48;;;;;;;13.48;3.83;;;26.40;88.40;;;;;;4990014;28;20054;-72
2023/06/07 10:05:16;;;;;;;11.80;3.42;;;26.90;87.30;;;;;;4947167;28;206850;-73
2023/06/07 10:07:44;;;;;;;12.68;3.60;;;27.30;87.20;;;;;;5024821;28;20415;-72
2023/06/07 10:10:11;;;;;;;14.40;3.83;;;27.60;86.10;;;;;;4963396;28;211534;-73
2023/06/07 10:12:42;;;;;;;11.43;3.55;;;27.50;84.90;;;;;;5003776;28;20069;-74
2023/06/07 10:15:11;;;;;;;14.73;3.85;;;28.00;85.70;;;;;;4946874;28;239685;-72
2023/06/07 10:17:55;;;;;;;14.13;3.92;;;28.00;85.90;;;;;;5001153;28;20081;-72
2023/06/07 10:20:28;;;;;;;12.05;3.40;;;28.30;82.90;;;;;;4949548;28;213097;-72
2023/06/07 10:23:05;;;;;;;13.55;3.70;;;27.70;81.80;;;;;;5020418;28;20065;-73
2023/06/07 10:25:39;;;;;;;14.13;3.60;;;27.50;84.20;;;;;;4948165;28;170811;-73
2023/06/07 10:28:12;;;;;;;13.35;3.45;;;27.90;83.60;;;;;;5012629;28;208757;-72
2023/06/07 10:30:44;;;;;;;13.00;3.55;;;27.70;83.70;;;;;;4960564;28;39640;-72
2023/06/07 10:33:11;;;;;;;13.40;3.60;;;27.90;82.60;;;;;;4969175;28;212811;-73
2023/06/07 10:35:39;;;;;;;13.23;3.40;;;28.10;82.10;;;;;;5009177;28;20495;-71
2023/06/07 10:38:05;;;;;;;13.52;3.60;;;28.10;82.00;;;;;;4992927;28;251996;-73
2023/06/07 10:40:32;;;;;;;14.13;3.95;;;28.20;82.30;;;;;;4975351;28;205569;-73
2023/06/07 10:42:58;;;;;;;11.15;3.55;;;28.20;82.30;;;;;;4988184;28;20043;-73
2023/06/07 10:45:24;;;;;;;9.98;3.35;;;28.30;80.90;;;;;;4964457;28;209030;-73
2023/06/07 10:47:51;;;;;;;12.27;3.70;;;28.20;81.30;;;;;;5008998;28;20049;-72
2023/06/07 10:50:48;;;;;;;12.43;3.60;;;28.40;81.70;;;;;;4936217;28;216680;-74
2023/06/07 10:53:14;;;;;;;12.52;3.50;;;28.30;80.40;;;;;;4927144;28;258053;-75
2023/06/07 10:55:40;;;;;;;12.85;3.30;;;27.60;81.50;;;;;;5016381;28;20050;-75
2023/06/07 10:58:25;;;;;;;10.27;3.22;;;27.40;81.50;;;;;;4995560;28;208117;-73
2023/06/07 11:00:52;;;;;;;13.93;3.85;;;28.00;80.80;;;;;;4939791;28;20061;-73
2023/06/07 11:03:24;;;;;;;14.43;3.58;;;28.20;81.40;;;;;;4955382;28;221535;-74
2023/06/07 11:05:53;;;;;;;12.63;3.40;;;28.40;80.30;;;;;;5018182;28;20053;-73
2023/06/07 11:08:39;;;;;;;14.25;3.60;;;28.40;81.40;;;;;;4956307;28;209101;-73
2023/06/07 11:11:42;;;;;;;12.77;3.42;;;28.10;79.40;;;;;;5011868;28;20427;-73
2023/06/07 11:14:10;;;;;;;12.20;3.63;;;27.50;80.50;;;;;;4952158;28;206416;-73
2023/06/07 11:16:37;;;;;;;14.00;3.45;;;27.40;80.50;;;;;;4994701;28;20054;-74
2023/06/07 11:19:09;;;;;;;12.10;3.33;;;27.40;80.50;;;;;;4951554;28;208471;-73
2023/06/07 11:21:54;;;;;;;14.25;3.50;;;27.40;81.40;;;;;;4994606;28;20475;-77
2023/06/07 11:24:20;;;;;;;15.02;3.70;;;27.70;81.60;;;;;;4968568;28;168123;-73
2023/06/07 11:26:47;;;;;;;16.73;3.80;;;27.70;81.10;;;;;;4983690;28;20046;-73
2023/06/07 11:29:17;;;;;;;10.93;3.67;;;27.80;81.60;;;;;;4944961;28;218291;-73
2023/06/07 11:32:00;;;;;;;13.35;3.80;;;28.20;81.30;;;;;;5000223;28;20062;-74
2023/06/07 11:34:33;;;;;;;13.27;3.88;;;28.30;80.70;;;;;;4942600;28;214664;-74
2023/06/07 11:37:07;;;;;;;13.25;3.90;;;27.90;80.60;;;;;;4996934;28;20065;-74
2023/06/07 11:39:33;;;;;;;13.75;3.80;;;28.30;80.00;;;;;;4937373;28;206863;-75
2023/06/07 11:41:59;;;;;;;14.32;3.92;;;28.30;80.70;;;;;;4996963;28;20069;-72
2023/06/07 11:44:25;;;;;;;12.98;3.83;;;28.40;81.60;;;;;;4953858;28;208567;-73
2023/06/07 11:46:52;;;;;;;17.33;4.55;;;28.70;80.20;;;;;;4994148;28;20050;-73
2023/06/07 11:49:18;;;;;;;13.20;4.10;;;28.00;78.90;;;;;;4952605;28;208722;-73
2023/06/07 11:51:48;;;;;;;13.52;4.03;;;28.30;80.30;;;;;;4986893;28;20045;-74
2023/06/07 11:54:14;;;;;;;12.07;3.70;;;28.20;79.60;;;;;;4954985;28;228937;-74
2023/06/07 11:56:43;;;;;;;14.45;4.05;;;28.60;79.80;;;;;;5010611;28;20467;-75
2023/06/07 11:59:10;;;;;;;13.68;4.53;;;28.90;79.90;;;;;;4972571;28;208758;-75
2023/06/07 12:01:39;;;;;;;12.43;3.72;;;28.80;79.40;;;;;;4992661;28;20061;-74
2023/06/07 12:04:06;;;;;;;14.88;3.88;;;28.80;78.10;;;;;;4962676;28;235100;-75
2023/06/07 12:06:33;;;;;;;13.98;3.67;;;28.90;79.50;;;;;;5024306;28;20065;-76
2023/06/07 12:08:59;;;;;;;17.30;4.40;;;29.30;79.60;;;;;;4958438;28;211304;-75
2023/06/07 12:11:27;;;;;;;11.32;3.60;;;29.50;79.70;;;;;;4997693;28;20507;-74
2023/06/07 12:13:53;;;;;;;11.85;3.50;;;29.80;78.20;;;;;;4944047;28;215720;-75
2023/06/07 12:16:23;;;;;;;14.15;3.85;;;29.50;78.30;;;;;;4997252;28;20058;-76
2023/06/07 12:18:50;;;;;;;12.60;4.15;;;28.60;77.80;;;;;;4946573;28;177963;-75
2023/06/07 12:21:17;;;;;;;14.43;4.30;;;28.20;77.60;;;;;;4993278;28;20055;-73
2023/06/07 12:23:52;;;;;;;13.32;3.85;;;28.50;78.60;;;;;;4937930;28;220003;-75
2023/06/07 12:26:27;;;;;;;12.65;3.92;;;29.00;77.30;;;;;;4995422;28;20423;-75
2023/06/07 12:28:53;;;;;;;11.95;3.75;;;27.90;77.40;;;;;;4954690;28;210837;-75
2023/06/07 12:31:19;;;;;;;14.38;4.10;;;27.90;76.70;;;;;;5010070;28;20512;-75
2023/06/07 12:33:57;;;;;;;11.73;3.80;;;28.30;78.30;;;;;;4938881;28;248027;-74
2023/06/07 12:36:25;;;;;;;17.50;4.20;;;28.80;78.00;;;;;;5007236;28;20057;-73